createdAt,value
2023-03-29T00:00:07.692Z,100435.72
2023-03-29T00:02:37.174Z,100443.56
2023-03-29T00:05:06.177Z,100453.00
2023-03-29T00:07:33.900Z,100446.13
2023-03-29T00:10:04.628Z,100444.44
2023-03-29T00:12:33.439Z,100450.47
2023-03-29T00:15:01.034Z,100446.19
2023-03-29T00:17:30.557Z,100452.19
2023-03-29T00:19:59.865Z,100456.50
2023-03-29T00:22:33.820Z,100458.22
2023-03-29T00:25:02.728Z,100466.84
2023-03-29T00:27:30.630Z,100469.38
2023-03-29T00:30:00.524Z,100472.00
2023-03-29T00:32:28.450Z,100480.59
2023-03-29T00:34:56.126Z,100478.84
2023-03-29T00:37:25.143Z,100484.84
2023-03-29T00:39:54.120Z,100493.44
2023-03-29T00:42:22.134Z,100500.34
2023-03-29T00:44:59.504Z,100502.06
2023-03-29T00:47:32.511Z,100501.19
2023-03-29T00:50:04.886Z,100516.72
2023-03-29T00:52:35.629Z,100510.69
2023-03-29T00:55:11.843Z,100515.81
2023-03-29T00:57:40.684Z,100518.41
2023-03-29T01:00:13.139Z,100530.44
2023-03-29T01:02:43.546Z,100533.91
2023-03-29T01:05:15.701Z,100528.69
2023-03-29T01:07:49.911Z,100539.00
2023-03-29T01:10:25.465Z,100546.81
2023-03-29T01:12:58.165Z,100550.19
2023-03-29T01:15:27.774Z,100553.63
2023-03-29T01:17:56.740Z,100547.63
2023-03-29T01:20:35.587Z,100563.19
2023-03-29T01:23:21.243Z,100566.56
2023-03-29T01:26:00.857Z,100562.25
2023-03-29T01:28:34.240Z,100572.56
2023-03-29T01:31:05.745Z,100559.56
2023-03-29T01:33:38.733Z,100568.31
2023-03-29T01:36:14.227Z,100570.84
2023-03-29T01:38:46.609Z,100581.97
2023-03-29T01:41:14.842Z,100565.59
2023-03-29T01:43:48.781Z,100576.84
2023-03-29T01:46:26.954Z,100566.53
2023-03-29T01:48:59.739Z,100566.53
2023-03-29T01:51:35.247Z,100567.31
2023-03-29T01:54:07.395Z,100575.91
2023-03-29T01:56:40.698Z,100570.72
2023-03-29T01:59:14.044Z,100578.53
2023-03-29T02:01:47.454Z,100554.31
2023-03-29T02:04:20.060Z,100572.41
2023-03-29T02:06:53.273Z,100572.38
2023-03-29T02:09:22.322Z,100590.44
2023-03-29T02:11:51.479Z,100592.97
2023-03-29T02:14:25.593Z,100600.69
2023-03-29T02:16:53.442Z,100592.97
2023-03-29T02:19:22.851Z,100595.56
2023-03-29T02:21:59.850Z,100594.69
2023-03-29T02:24:30.495Z,100586.91
2023-03-29T02:26:59.914Z,100601.53
2023-03-29T02:29:30.249Z,100603.28
2023-03-29T02:32:03.277Z,100603.19
2023-03-29T02:34:34.599Z,100613.53
2023-03-29T02:37:06.458Z,100598.03
2023-03-29T02:39:37.946Z,100609.19
2023-03-29T02:42:07.491Z,100614.38
2023-03-29T02:44:39.800Z,100620.34
2023-03-29T02:47:13.855Z,100616.03
2023-03-29T02:49:41.636Z,100618.69
2023-03-29T02:52:14.472Z,100629.84
2023-03-29T02:54:43.775Z,100609.88
2023-03-29T02:57:11.824Z,100625.41
2023-03-29T10:59:30.357Z,100936.84
2023-03-29T11:02:33.264Z,100930.41
2023-03-29T11:05:16.312Z,100931.16
2023-03-29T11:07:59.803Z,100962.34
2023-03-29T11:10:37.852Z,100958.78
2023-03-29T11:13:14.671Z,100955.72
2023-03-29T11:15:55.607Z,100965.44
2023-03-29T11:18:43.285Z,100960.09
2023-03-29T11:21:21.132Z,100974.75
2023-03-29T11:23:57.918Z,100958.38
2023-03-29T11:26:30.235Z,100969.84
2023-03-29T11:29:06.856Z,100976.53
2023-03-29T11:31:48.230Z,100966.50
2023-03-29T11:34:28.811Z,100957.66
2023-03-29T11:37:03.520Z,100979.94
2023-03-29T11:39:45.054Z,100970.50
2023-03-29T11:42:18.685Z,100971.69
2023-03-29T11:44:53.408Z,100977.59
2023-03-29T11:47:28.006Z,100983.00
2023-03-29T11:49:58.461Z,100977.97
2023-03-29T11:52:30.449Z,100977.81
2023-03-29T11:55:03.111Z,100981.28
2023-03-29T11:57:37.363Z,100965.63
2023-03-29T12:00:10.835Z,100978.59
2023-03-29T12:02:44.794Z,100989.03
2023-03-29T12:05:20.114Z,100982.94
2023-03-29T12:07:53.763Z,100976.75
2023-03-29T12:10:23.166Z,100981.97
2023-03-29T12:12:58.611Z,100990.06
2023-03-29T12:15:29.613Z,101003.94
2023-03-29T12:18:06.021Z,100999.69
2023-03-29T12:20:39.010Z,101000.47
2023-03-29T12:23:10.822Z,101014.44
2023-03-29T12:25:48.976Z,100996.28
2023-03-29T12:29:08.889Z,101025.75
2023-03-29T12:31:44.699Z,101017.13
2023-03-29T12:34:28.473Z,101028.41
2023-03-29T12:37:10.655Z,101023.22
2023-03-29T12:39:39.492Z,101006.75
2023-03-29T12:42:16.501Z,101004.16
2023-03-29T12:44:49.337Z,101038.03
2023-03-29T12:47:21.192Z,101033.69
2023-03-29T12:49:53.973Z,101024.16
2023-03-29T12:52:27.303Z,101030.22
2023-03-29T12:54:56.736Z,101049.25
2023-03-29T12:57:28.461Z,101041.44
2023-03-29T12:59:55.902Z,101033.63
2023-03-29T13:02:35.756Z,101048.44
2023-03-29T13:05:29.059Z,101047.56
2023-03-29T13:07:56.836Z,101057.13
2023-03-29T13:10:51.909Z,101051.91
2023-03-29T13:13:26.919Z,101052.75
2023-03-29T13:15:54.927Z,101048.38
2023-03-29T13:18:43.597Z,101048.38
2023-03-29T13:21:20.868Z,101050.13
2023-03-29T13:23:56.613Z,101044.97
2023-03-29T13:26:37.313Z,101046.69
2023-03-29T13:29:22.451Z,101046.72
2023-03-29T13:31:58.637Z,101057.09
2023-03-29T13:34:36.953Z,101062.31
2023-03-29T13:37:22.911Z,101051.03
2023-03-29T13:39:52.475Z,101057.06
2023-03-29T13:42:26.023Z,101064.00
2023-03-29T13:45:04.835Z,101054.44
2023-03-29T13:47:48.930Z,101064.00
2023-03-29T13:50:35.620Z,101057.06
2023-03-29T13:53:12.468Z,101070.06
2023-03-29T13:55:46.119Z,101075.28
2023-03-29T13:58:30.369Z,101069.19
2023-03-29T14:01:06.788Z,101075.25
2023-03-29T14:03:43.130Z,101086.50
2023-03-29T14:06:14.070Z,101085.63
2023-03-29T14:08:47.802Z,101083.00
2023-03-29T14:11:22.064Z,101086.50
2023-03-29T14:13:52.584Z,101087.41
2023-03-29T14:16:20.794Z,101083.09
2023-03-29T14:18:50.756Z,101089.97
2023-03-29T14:21:20.794Z,101077.00
2023-03-29T14:23:56.169Z,101092.53
2023-03-29T14:26:29.265Z,101099.47
2023-03-29T14:28:58.711Z,101102.06
2023-03-29T14:31:30.243Z,101091.66
2023-03-29T14:34:00.325Z,101100.31
2023-03-29T14:36:31.038Z,101100.34
2023-03-29T14:39:04.238Z,101106.44
2023-03-29T14:41:34.506Z,101101.25
2023-03-29T14:44:03.306Z,101099.50
2023-03-29T14:46:31.628Z,101103.84
2023-03-29T14:49:01.850Z,101091.69
2023-03-29T14:51:29.743Z,101107.28
2023-03-29T14:53:59.082Z,101122.00
2023-03-29T14:56:29.118Z,101116.75
2023-03-29T14:58:57.556Z,101124.53
2023-03-29T15:01:26.717Z,101126.19
2023-03-29T15:03:57.051Z,101122.69
2023-03-29T15:06:26.052Z,101130.44
2023-03-29T15:09:05.077Z,101128.72
2023-03-29T15:11:35.875Z,101139.97
2023-03-29T15:14:06.324Z,101140.00
2023-03-29T15:16:38.730Z,101136.41
2023-03-29T15:19:07.615Z,101139.91
2023-03-29T15:21:35.670Z,101143.38
2023-03-29T15:24:04.895Z,101145.06
2023-03-29T15:26:34.396Z,101160.66
2023-03-29T15:29:07.196Z,101158.06
2023-03-29T15:31:37.952Z,101157.16
2023-03-29T15:34:09.053Z,101170.13
2023-03-29T15:36:41.072Z,101157.91
2023-03-29T15:39:12.289Z,101165.72
2023-03-29T15:41:39.977Z,101162.22
2023-03-29T15:44:10.641Z,101173.50
2023-03-29T15:46:38.776Z,101169.09
2023-03-29T15:49:10.653Z,101174.22
2023-03-29T15:51:40.183Z,101177.50
2023-03-29T15:54:07.977Z,101180.88
2023-03-29T15:56:43.724Z,101165.19
2023-03-29T15:59:13.531Z,101183.41
2023-03-29T16:01:41.347Z,101192.88
2023-03-29T16:04:12.397Z,101192.75
2023-03-29T16:06:42.393Z,101189.28
2023-03-29T16:09:10.375Z,101189.22
2023-03-29T16:11:38.594Z,101195.28
2023-03-29T16:14:20.922Z,101183.19
2023-03-29T16:16:49.516Z,101202.22
2023-03-29T16:19:22.458Z,101198.72
2023-03-29T16:21:51.118Z,101199.59
2023-03-29T16:24:22.250Z,101199.63
2023-03-29T16:26:52.800Z,101207.41
2023-03-29T16:29:25.470Z,101201.25
2023-03-29T16:31:53.906Z,101193.31
2023-03-29T16:34:22.143Z,101203.56
2023-03-29T16:36:50.619Z,101208.56
2023-03-29T16:39:19.944Z,101212.84
2023-03-29T16:41:47.802Z,101219.81
2023-03-29T16:44:16.702Z,101234.44
2023-03-29T16:46:46.355Z,101233.47
2023-03-29T16:49:14.608Z,101227.34
2023-03-29T16:51:42.330Z,101236.00
2023-03-29T16:54:10.005Z,101240.28
2023-03-29T16:56:38.029Z,101235.97
2023-03-29T16:59:06.716Z,101242.97
2023-03-29T17:01:34.626Z,101249.00
2023-03-29T17:04:04.201Z,101247.28
2023-03-29T17:06:32.905Z,101240.19
2023-03-29T17:09:00.967Z,101259.19
2023-03-29T17:11:29.076Z,101268.69
2023-03-29T17:13:57.627Z,101265.09
2023-03-29T17:16:26.058Z,101257.28
2023-03-29T17:18:53.951Z,101265.03
2023-03-29T17:21:22.989Z,101260.53
2023-03-29T17:23:50.988Z,101269.31
2023-03-29T17:26:18.633Z,101269.31
2023-03-29T17:28:46.578Z,101281.34
2023-03-29T17:31:14.621Z,101279.69
2023-03-29T17:33:43.008Z,101272.78
2023-03-29T17:36:11.397Z,101275.38
2023-03-29T17:38:41.328Z,101276.25
2023-03-29T17:41:08.924Z,101272.69
2023-03-29T17:43:37.270Z,101289.16
2023-03-29T17:46:06.061Z,101288.34
2023-03-29T17:48:33.950Z,101285.66
2023-03-29T17:51:01.859Z,101294.31
2023-03-29T17:53:30.240Z,101296.84
2023-03-29T17:55:59.561Z,101307.16
2023-03-29T17:58:27.296Z,101293.28
2023-03-29T18:00:55.091Z,101286.34
2023-03-29T18:03:23.809Z,101289.81
2023-03-29T18:05:51.553Z,101293.31
2023-03-29T18:08:19.328Z,101297.63
2023-03-29T18:10:48.013Z,101296.81
2023-03-29T18:13:17.660Z,101300.25
2023-03-29T18:15:45.442Z,101306.25
2023-03-29T18:18:13.164Z,101297.50
2023-03-29T18:20:41.035Z,101309.72
2023-03-29T18:23:11.658Z,101313.97
2023-03-29T18:25:40.383Z,101300.09
2023-03-29T18:28:08.089Z,101300.94
2023-03-29T18:30:38.189Z,101310.47
2023-03-29T18:33:05.988Z,101308.75
2023-03-29T18:35:33.787Z,101305.16
2023-03-29T18:38:01.668Z,101308.63
2023-03-29T18:40:29.330Z,101307.75
2023-03-29T18:42:57.186Z,101302.41
2023-03-29T18:45:25.025Z,101311.09
2023-03-29T18:47:54.783Z,101304.97
2023-03-29T18:50:23.004Z,101314.47
2023-03-29T18:52:51.240Z,101306.66
2023-03-29T18:55:18.999Z,101314.47
2023-03-29T18:57:46.729Z,101301.50
2023-03-29T19:00:17.478Z,101320.53
2023-03-29T19:02:46.377Z,101302.16
2023-03-29T19:05:15.590Z,101321.31
2023-03-29T19:07:43.452Z,101311.84
2023-03-29T19:10:11.238Z,101315.22
2023-03-29T19:12:39.011Z,101313.34
2023-03-29T19:15:09.352Z,101313.31
2023-03-29T19:17:37.350Z,101311.59
2023-03-29T19:20:06.361Z,101315.84
2023-03-29T19:22:36.015Z,101308.13
2023-03-29T19:25:04.169Z,101289.75
2023-03-29T19:27:33.233Z,101297.66
2023-03-29T19:30:00.960Z,101302.78
2023-03-29T19:32:28.660Z,101302.72
2023-03-29T19:35:02.511Z,101282.72
2023-03-29T19:37:30.529Z,101293.31
2023-03-29T19:40:00.041Z,101302.88
2023-03-29T19:42:28.189Z,101300.28
2023-03-29T19:44:55.789Z,101288.94
2023-03-29T19:47:23.468Z,101301.97
2023-03-29T19:49:51.413Z,101302.84
2023-03-29T19:52:18.974Z,101301.09
2023-03-29T19:54:46.631Z,101302.72
2023-03-29T19:57:15.828Z,101286.31
2023-03-29T19:59:43.673Z,101270.63
2023-03-29T20:02:18.858Z,101290.56
2023-03-29T20:04:46.423Z,101297.44
2023-03-29T20:07:14.353Z,101294.78
2023-03-29T20:09:44.567Z,101291.38
2023-03-29T20:12:12.865Z,101292.22
2023-03-29T20:14:42.286Z,101290.53
2023-03-29T20:17:09.858Z,101295.63
2023-03-29T20:19:37.522Z,101294.81
2023-03-29T20:22:05.378Z,101291.28
2023-03-29T20:24:34.763Z,101290.50
2023-03-29T20:27:02.598Z,101291.44
2023-03-29T20:29:31.150Z,101283.69
2023-03-29T20:32:00.465Z,101292.31
2023-03-29T20:34:28.161Z,101292.31
2023-03-29T20:36:56.081Z,101296.81
2023-03-29T20:39:25.807Z,101297.72
2023-03-29T20:41:53.575Z,101291.69
2023-03-29T20:44:21.464Z,101283.84
2023-03-29T20:46:49.158Z,101283.78
2023-03-29T20:49:18.140Z,101295.97
2023-03-29T20:51:46.291Z,101293.44
2023-03-29T20:54:14.068Z,101276.22
2023-03-29T20:56:41.697Z,101281.41
2023-03-29T20:59:10.942Z,101271.81
2023-03-29T21:01:38.794Z,101283.13
2023-03-29T21:04:07.309Z,101283.06
2023-03-29T21:06:37.023Z,101283.13
2023-03-29T21:09:04.640Z,101270.13
2023-03-29T21:11:33.032Z,101285.59
2023-03-29T21:14:01.118Z,101276.25
2023-03-29T21:16:28.822Z,101281.41
2023-03-29T21:18:57.132Z,101283.09
2023-03-29T21:21:25.216Z,101264.81
2023-03-29T21:23:54.335Z,101268.38
2023-03-29T21:26:21.853Z,101273.50
2023-03-29T21:28:49.766Z,101278.81
2023-03-29T21:31:17.382Z,101266.66
2023-03-29T21:33:45.523Z,101257.91
2023-03-29T21:36:14.837Z,101273.63
2023-03-29T21:38:44.408Z,101268.56
2023-03-29T21:41:13.797Z,101271.06
2023-03-29T21:43:41.901Z,101263.19
2023-03-29T21:46:10.100Z,101270.16
2023-03-29T21:48:37.995Z,101270.16
2023-03-29T21:51:06.926Z,101272.81
2023-03-29T21:53:35.065Z,101273.53
2023-03-29T21:56:02.883Z,101275.31
2023-03-29T21:58:32.665Z,101273.44
2023-03-29T22:01:01.721Z,101281.25
2023-03-29T22:03:30.245Z,101277.75
2023-03-29T22:05:59.512Z,101278.63
2023-03-29T22:08:28.464Z,101282.03
2023-03-29T22:10:57.141Z,101271.63
2023-03-29T22:13:27.634Z,101281.06
2023-03-29T22:15:57.551Z,101280.22
2023-03-29T22:18:25.995Z,101275.94
2023-03-29T22:21:00.512Z,101276.78
2023-03-29T22:23:28.551Z,101285.31
2023-03-29T22:25:56.200Z,101274.09
2023-03-29T22:28:25.929Z,101275.50
2023-03-29T22:30:53.597Z,101279.97
2023-03-29T22:33:22.590Z,101268.69
2023-03-29T22:35:50.258Z,101285.16
2023-03-29T22:38:17.945Z,101279.91
2023-03-29T22:40:45.576Z,101271.25
2023-03-29T22:43:13.379Z,101282.53
2023-03-29T22:45:41.092Z,101285.06
2023-03-29T22:48:08.758Z,101291.09
2023-03-29T22:50:38.043Z,101289.41
2023-03-29T22:53:05.770Z,101299.75
2023-03-29T22:55:33.311Z,101277.06
2023-03-29T22:58:01.381Z,101302.13
2023-03-29T23:00:29.523Z,101299.47
2023-03-29T23:02:57.673Z,101294.38
2023-03-29T23:05:25.546Z,101289.88
2023-03-29T23:07:54.673Z,101298.59
2023-03-29T23:10:25.901Z,101290.78
2023-03-29T23:12:55.785Z,101295.97
2023-03-29T23:15:23.516Z,101301.03
2023-03-29T23:17:51.512Z,101292.44
2023-03-29T23:20:19.740Z,101299.34
2023-03-29T23:22:47.440Z,101297.63
2023-03-29T23:25:17.781Z,101286.25
2023-03-29T23:27:45.668Z,101285.34
2023-03-29T23:30:13.594Z,101301.78
2023-03-29T23:32:42.822Z,101298.34
2023-03-29T23:35:10.484Z,101296.59
2023-03-29T23:37:39.744Z,101305.28
2023-03-29T23:40:09.001Z,101299.22
2023-03-29T23:42:38.199Z,101301.91
2023-03-29T23:45:08.007Z,101298.38
2023-03-29T23:47:36.210Z,101298.31
2023-03-29T23:50:07.515Z,101294.81
2023-03-29T23:52:35.990Z,101311.25
2023-03-29T23:55:04.256Z,101300.91
2023-03-29T23:57:32.678Z,101299.91
